Time;durP1;ratioP1;P1;durP2;ratioP2;P2;SDS_P1;SDS_P2;PMS_P1;PMS_P2;Temp;Humidity;BMP_temperature;BMP_pressure;BME280_temperature;BME280_humidity;BME280_pressure;Samples;Min_cycle;Max_cycle;Signal;HPM_P1;HPM_P2
2024/03/03 00:01:44;;;;;;;20.90;15.80;;;;;;;;;;5013240;28;20417;-86
2024/03/03 00:04:10;;;;;;;24.33;15.53;;;;;;;;;;5013100;28;20468;-84
2024/03/03 00:06:37;;;;;;;22.97;15.93;;;;;;;;;;5012785;28;20757;-85
2024/03/03 00:09:05;;;;;;;22.67;14.10;;;;;;;;;;5013333;28;20830;-85
2024/03/03 00:11:31;;;;;;;22.20;16.37;;;;;;;;;;5013241;28;20521;-84
2024/03/03 00:13:57;;;;;;;24.20;15.40;;;;;;;;;;5012819;28;20428;-85
2024/03/03 00:16:23;;;;;;;28.50;17.13;;;;;;;;;;5013331;28;20420;-85
2024/03/03 00:18:48;;;;;;;22.93;16.80;;;;;;;;;;5012995;28;20467;-84
2024/03/03 00:21:15;;;;;;;24.83;17.07;;;;;;;;;;5027982;28;20419;-84
2024/03/03 00:23:41;;;;;;;24.37;17.60;;;;;;;;;;5032414;28;20463;-84
2024/03/03 00:26:07;;;;;;;28.60;18.17;;;;;;;;;;5032431;28;20405;-84
2024/03/03 00:28:33;;;;;;;27.33;18.07;;;;;;;;;;5031909;28;20911;-84
2024/03/03 00:30:59;;;;;;;26.50;18.17;;;;;;;;;;5035438;28;20762;-85
2024/03/03 00:33:25;;;;;;;26.97;16.20;;;;;;;;;;5035315;28;20439;-83
2024/03/03 00:35:51;;;;;;;25.37;17.20;;;;;;;;;;5036750;28;20414;-84
2024/03/03 00:38:17;;;;;;;28.50;17.70;;;;;;;;;;5031442;28;20557;-84
2024/03/03 00:40:43;;;;;;;27.30;17.67;;;;;;;;;;5016603;28;20423;-82
2024/03/03 00:43:09;;;;;;;30.17;18.73;;;;;;;;;;5016730;28;20413;-83
2024/03/03 00:45:35;;;;;;;29.33;19.80;;;;;;;;;;5016231;28;20901;-83
2024/03/03 00:48:02;;;;;;;27.57;17.40;;;;;;;;;;5023796;28;20418;-84
2024/03/03 00:50:28;;;;;;;26.60;17.00;;;;;;;;;;5035764;28;20423;-84
2024/03/03 00:52:54;;;;;;;28.93;18.83;;;;;;;;;;5035032;28;20420;-82
2024/03/03 00:55:23;;;;;;;29.70;17.80;;;;;;;;;;5036154;28;20899;-83
2024/03/03 00:57:50;;;;;;;23.77;19.27;;;;;;;;;;5034971;28;20477;-83
2024/03/03 01:00:15;;;;;;;27.10;18.20;;;;;;;;;;5035823;28;20427;-83
2024/03/03 01:02:41;;;;;;;26.30;19.20;;;;;;;;;;5035844;28;20415;-84
2024/03/03 01:05:11;;;;;;;24.93;16.97;;;;;;;;;;5034948;28;20514;-84
2024/03/03 01:07:37;;;;;;;27.93;18.43;;;;;;;;;;5035629;28;20463;-84
2024/03/03 01:10:04;;;;;;;28.00;18.27;;;;;;;;;;5036003;28;20496;-83
2024/03/03 01:12:30;;;;;;;25.73;18.77;;;;;;;;;;5036081;28;20469;-84
2024/03/03 01:14:56;;;;;;;27.67;17.30;;;;;;;;;;5035644;28;20413;-84
2024/03/03 01:17:22;;;;;;;31.20;18.37;;;;;;;;;;5034611;28;20574;-84
2024/03/03 01:19:48;;;;;;;23.50;16.53;;;;;;;;;;5035755;28;20558;-84
2024/03/03 01:22:14;;;;;;;28.10;17.60;;;;;;;;;;5034516;28;20936;-83
2024/03/03 01:24:40;;;;;;;32.60;20.37;;;;;;;;;;5034400;28;20434;-83
2024/03/03 01:27:06;;;;;;;29.47;17.47;;;;;;;;;;5034616;28;21259;-84
2024/03/03 01:29:32;;;;;;;29.83;17.63;;;;;;;;;;5035067;28;20464;-83
2024/03/03 01:31:58;;;;;;;29.50;20.73;;;;;;;;;;5031475;28;20444;-83
2024/03/03 01:34:25;;;;;;;29.50;20.80;;;;;;;;;;5033702;28;20499;-83
2024/03/03 01:36:52;;;;;;;29.77;19.40;;;;;;;;;;5034253;28;20423;-83
2024/03/03 01:39:17;;;;;;;29.90;19.13;;;;;;;;;;5034669;28;21018;-83
2024/03/03 01:41:47;;;;;;;27.10;19.20;;;;;;;;;;5034557;28;20405;-85
2024/03/03 01:44:14;;;;;;;28.50;19.60;;;;;;;;;;5031892;28;20189;-84
2024/03/03 01:46:40;;;;;;;30.50;20.87;;;;;;;;;;5034948;28;20400;-83
2024/03/03 01:49:07;;;;;;;30.97;19.07;;;;;;;;;;5033382;28;20955;-82
2024/03/03 01:51:33;;;;;;;28.57;19.10;;;;;;;;;;5031649;28;20410;-84
2024/03/03 01:53:59;;;;;;;27.00;18.27;;;;;;;;;;5034973;28;20749;-82
2024/03/03 01:56:28;;;;;;;30.57;19.60;;;;;;;;;;5035260;28;20504;-86
2024/03/03 01:58:55;;;;;;;26.63;20.50;;;;;;;;;;5032310;28;20551;-84
2024/03/03 02:01:21;;;;;;;31.27;20.23;;;;;;;;;;5033876;28;20930;-85
2024/03/03 02:03:48;;;;;;;30.27;19.50;;;;;;;;;;5035079;28;20470;-83
2024/03/03 02:06:15;;;;;;;29.20;19.90;;;;;;;;;;5032732;28;20418;-86
2024/03/03 02:08:41;;;;;;;27.30;17.60;;;;;;;;;;5035247;28;20408;-87
2024/03/03 02:11:07;;;;;;;29.13;20.03;;;;;;;;;;5035268;28;20415;-82
2024/03/03 02:13:34;;;;;;;32.07;18.93;;;;;;;;;;5032483;28;20828;-85
2024/03/03 02:16:00;;;;;;;33.80;21.17;;;;;;;;;;5035035;28;20421;-85
2024/03/03 02:18:26;;;;;;;28.90;20.97;;;;;;;;;;5035090;28;20455;-86
2024/03/03 02:20:52;;;;;;;27.97;19.30;;;;;;;;;;5033600;28;20430;-88
2024/03/03 02:23:18;;;;;;;29.83;20.40;;;;;;;;;;5035226;28;20412;-87
2024/03/03 02:25:44;;;;;;;29.27;19.80;;;;;;;;;;5034931;28;20419;-88
2024/03/03 02:28:10;;;;;;;25.33;17.80;;;;;;;;;;5034605;28;20924;-88
2024/03/03 02:30:36;;;;;;;32.87;17.37;;;;;;;;;;5034932;28;20442;-84
2024/03/03 02:33:02;;;;;;;36.03;20.90;;;;;;;;;;5035056;28;20881;-86
2024/03/03 02:35:28;;;;;;;31.07;20.50;;;;;;;;;;5034102;28;20271;-85
2024/03/03 02:37:54;;;;;;;28.57;18.93;;;;;;;;;;5034709;28;20515;-84
2024/03/03 02:40:20;;;;;;;28.40;19.13;;;;;;;;;;5034187;28;20424;-85
2024/03/03 02:42:46;;;;;;;30.67;19.53;;;;;;;;;;5034254;28;20419;-83
2024/03/03 02:45:12;;;;;;;31.27;20.03;;;;;;;;;;5033694;28;20497;-83
2024/03/03 02:47:38;;;;;;;30.00;20.27;;;;;;;;;;5033950;28;20428;-82
2024/03/03 02:50:04;;;;;;;32.77;20.03;;;;;;;;;;5033963;28;20422;-83
2024/03/03 02:52:30;;;;;;;31.47;19.33;;;;;;;;;;5033519;28;20892;-84
2024/03/03 02:54:56;;;;;;;31.00;19.77;;;;;;;;;;5033841;28;20408;-83
2024/03/03 02:57:22;;;;;;;26.80;18.20;;;;;;;;;;5033801;28;20439;-82
2024/03/03 02:59:48;;;;;;;28.97;19.40;;;;;;;;;;5033307;28;20515;-82
2024/03/03 03:02:14;;;;;;;29.90;19.60;;;;;;;;;;5033860;28;20423;-82
2024/03/03 03:04:40;;;;;;;28.70;18.17;;;;;;;;;;5033571;28;20459;-82
2024/03/03 03:07:06;;;;;;;30.63;19.20;;;;;;;;;;5033638;28;20835;-84
2024/03/03 03:09:32;;;;;;;25.97;18.43;;;;;;;;;;5033473;28;20412;-83
2024/03/03 03:11:58;;;;;;;27.60;16.00;;;;;;;;;;5032252;28;20421;-82
2024/03/03 03:14:24;;;;;;;29.83;18.63;;;;;;;;;;5033175;28;20785;-83
2024/03/03 03:16:50;;;;;;;24.60;17.70;;;;;;;;;;5033332;28;20766;-83
2024/03/03 03:19:16;;;;;;;28.83;18.67;;;;;;;;;;5033373;28;20475;-82
2024/03/03 03:21:42;;;;;;;24.50;17.63;;;;;;;;;;5033358;28;20404;-81
2024/03/03 03:24:08;;;;;;;32.57;18.43;;;;;;;;;;5033347;28;20420;-81
2024/03/03 03:26:34;;;;;;;27.30;18.53;;;;;;;;;;5033238;28;20426;-81
2024/03/03 03:29:02;;;;;;;30.30;17.70;;;;;;;;;;5031604;28;20424;-82
2024/03/03 03:31:27;;;;;;;26.10;19.77;;;;;;;;;;5033072;28;20444;-82
2024/03/03 03:33:53;;;;;;;28.70;18.53;;;;;;;;;;5032061;28;20821;-81
2024/03/03 03:36:19;;;;;;;29.87;19.80;;;;;;;;;;5033109;28;20174;-81
2024/03/03 03:38:45;;;;;;;29.40;18.90;;;;;;;;;;5033181;28;20468;-81
2024/03/03 03:41:11;;;;;;;29.53;18.60;;;;;;;;;;5032931;28;20456;-81
2024/03/03 03:43:37;;;;;;;33.33;20.63;;;;;;;;;;5032654;28;20773;-81
2024/03/03 03:46:03;;;;;;;29.53;21.13;;;;;;;;;;5032946;28;20499;-81
2024/03/03 03:48:29;;;;;;;29.97;19.20;;;;;;;;;;5032831;28;20406;-81
2024/03/03 03:50:55;;;;;;;28.50;18.17;;;;;;;;;;5032861;28;20409;-80
2024/03/03 03:53:21;;;;;;;32.10;20.07;;;;;;;;;;5032595;28;20413;-81
2024/03/03 03:55:47;;;;;;;29.63;18.07;;;;;;;;;;5032900;28;20988;-81
2024/03/03 03:58:13;;;;;;;30.70;18.37;;;;;;;;;;5032402;28;20458;-81
2024/03/03 04:00:39;;;;;;;29.87;20.13;;;;;;;;;;5032741;28;20451;-82
2024/03/03 04:03:06;;;;;;;32.50;20.37;;;;;;;;;;5031856;28;20448;-81
2024/03/03 04:05:32;;;;;;;35.00;20.57;;;;;;;;;;5032697;28;20471;-81
2024/03/03 04:07:57;;;;;;;26.73;17.60;;;;;;;;;;5032543;28;20400;-81
2024/03/03 04:10:24;;;;;;;35.93;20.20;;;;;;;;;;5031441;28;20897;-81
2024/03/03 04:12:50;;;;;;;28.47;18.80;;;;;;;;;;5032249;28;20411;-81
2024/03/03 04:15:16;;;;;;;26.13;18.20;;;;;;;;;;5031548;28;20938;-82
2024/03/03 04:17:42;;;;;;;32.10;20.60;;;;;;;;;;5032625;28;20879;-81
2024/03/03 04:20:08;;;;;;;30.23;20.30;;;;;;;;;;5032334;28;20499;-81
2024/03/03 04:22:34;;;;;;;32.37;20.70;;;;;;;;;;5032414;28;20923;-81
2024/03/03 04:25:00;;;;;;;30.53;18.93;;;;;;;;;;5032472;28;20428;-82
2024/03/03 04:27:27;;;;;;;32.20;20.83;;;;;;;;;;5032462;28;20417;-81
2024/03/03 04:29:52;;;;;;;33.13;22.23;;;;;;;;;;5032034;28;20450;-83
2024/03/03 04:32:18;;;;;;;31.83;20.60;;;;;;;;;;5031240;28;20934;-81
2024/03/03 04:34:44;;;;;;;32.27;22.13;;;;;;;;;;5032410;28;20508;-81
2024/03/03 04:37:11;;;;;;;28.77;17.60;;;;;;;;;;5032276;28;20443;-81
2024/03/03 04:39:37;;;;;;;33.00;21.57;;;;;;;;;;5032331;28;20215;-81
2024/03/03 04:42:03;;;;;;;30.77;20.67;;;;;;;;;;5031225;28;20419;-81
2024/03/03 04:44:30;;;;;;;34.23;21.97;;;;;;;;;;5031881;28;20423;-81
2024/03/03 04:46:56;;;;;;;27.47;20.30;;;;;;;;;;5032310;28;20442;-81
2024/03/03 04:49:22;;;;;;;35.23;21.80;;;;;;;;;;5032123;28;20836;-81
2024/03/03 04:51:48;;;;;;;35.03;21.80;;;;;;;;;;5030949;28;20469;-81
2024/03/03 04:54:14;;;;;;;33.27;21.37;;;;;;;;;;5029618;28;20933;-81
2024/03/03 04:56:39;;;;;;;32.30;21.00;;;;;;;;;;5032192;28;20415;-82
2024/03/03 04:59:05;;;;;;;36.43;22.80;;;;;;;;;;5031850;28;20469;-81
2024/03/03 05:01:31;;;;;;;28.47;20.63;;;;;;;;;;5032063;28;20922;-81
2024/03/03 05:03:57;;;;;;;36.10;21.60;;;;;;;;;;5031928;28;20455;-81
2024/03/03 05:06:23;;;;;;;31.83;20.70;;;;;;;;;;5032191;28;20514;-82
2024/03/03 05:08:49;;;;;;;34.60;22.47;;;;;;;;;;5032536;28;20451;-82
2024/03/03 05:11:16;;;;;;;36.80;21.37;;;;;;;;;;5032543;28;20454;-83
2024/03/03 05:13:41;;;;;;;30.67;20.80;;;;;;;;;;5030970;28;20459;-84
2024/03/03 05:16:08;;;;;;;34.77;22.20;;;;;;;;;;5035098;28;20443;-84
2024/03/03 05:18:34;;;;;;;34.70;23.33;;;;;;;;;;5036155;28;20492;-83
2024/03/03 05:21:00;;;;;;;32.30;22.83;;;;;;;;;;5036279;28;20423;-83
2024/03/03 05:23:26;;;;;;;35.07;22.43;;;;;;;;;;5036165;28;20978;-82
2024/03/03 05:25:52;;;;;;;39.30;22.43;;;;;;;;;;5036126;28;20509;-83
2024/03/03 05:28:19;;;;;;;37.10;23.57;;;;;;;;;;5035880;28;20448;-83
2024/03/03 05:30:45;;;;;;;38.00;24.20;;;;;;;;;;5036051;28;20412;-85
2024/03/03 05:33:11;;;;;;;33.90;24.03;;;;;;;;;;5036016;28;20426;-84
2024/03/03 05:35:38;;;;;;;35.20;23.37;;;;;;;;;;5036179;28;20423;-84
2024/03/03 05:38:04;;;;;;;38.03;24.33;;;;;;;;;;5034641;28;20545;-85
2024/03/03 05:40:33;;;;;;;39.30;24.43;;;;;;;;;;5035811;28;20416;-85
2024/03/03 05:43:00;;;;;;;33.00;22.93;;;;;;;;;;5034185;28;20432;-83
2024/03/03 05:45:26;;;;;;;43.70;24.90;;;;;;;;;;5035808;28;20789;-86
2024/03/03 05:47:52;;;;;;;38.37;26.10;;;;;;;;;;5035798;28;20477;-85
2024/03/03 05:50:18;;;;;;;34.60;23.00;;;;;;;;;;5035714;28;20411;-85
2024/03/03 05:52:44;;;;;;;37.17;24.20;;;;;;;;;;5035621;28;20412;-85
2024/03/03 05:55:10;;;;;;;35.50;22.83;;;;;;;;;;5034411;28;20466;-84
2024/03/03 05:57:36;;;;;;;42.93;24.87;;;;;;;;;;5035165;28;20419;-85
2024/03/03 06:00:05;;;;;;;33.47;22.17;;;;;;;;;;5035254;28;20508;-84
2024/03/03 06:02:34;;;;;;;37.33;24.00;;;;;;;;;;5033927;28;20411;-85
2024/03/03 06:05:00;;;;;;;38.00;24.20;;;;;;;;;;5035248;28;20424;-86
2024/03/03 06:07:26;;;;;;;37.60;24.83;;;;;;;;;;5035390;28;20411;-85
2024/03/03 06:09:52;;;;;;;34.87;22.70;;;;;;;;;;5035207;28;20510;-86
2024/03/03 06:12:18;;;;;;;34.67;23.27;;;;;;;;;;5035334;28;20399;-83
2024/03/03 06:14:47;;;;;;;35.20;23.20;;;;;;;;;;5034781;28;20416;-83
2024/03/03 06:17:16;;;;;;;36.33;23.67;;;;;;;;;;5035240;28;20486;-84
2024/03/03 06:19:42;;;;;;;38.60;24.57;;;;;;;;;;5035080;28;20864;-83
2024/03/03 06:22:08;;;;;;;35.63;24.13;;;;;;;;;;5034993;28;20490;-84
2024/03/03 06:24:34;;;;;;;39.10;23.67;;;;;;;;;;5035144;28;20417;-85
2024/03/03 06:26:59;;;;;;;39.07;24.50;;;;;;;;;;5034380;28;20508;-83
2024/03/03 06:29:25;;;;;;;39.83;24.17;;;;;;;;;;5034677;28;20426;-84
2024/03/03 06:31:51;;;;;;;38.60;24.97;;;;;;;;;;5035192;28;20418;-85
2024/03/03 06:34:18;;;;;;;39.53;26.10;;;;;;;;;;5033968;28;20762;-85
2024/03/03 06:36:44;;;;;;;41.23;25.10;;;;;;;;;;5034924;28;20411;-84
2024/03/03 06:39:10;;;;;;;41.30;26.30;;;;;;;;;;5034775;28;20475;-85
2024/03/03 06:41:36;;;;;;;41.73;27.70;;;;;;;;;;5033464;28;20471;-84
2024/03/03 06:44:02;;;;;;;42.27;26.30;;;;;;;;;;5033298;28;20460;-82
2024/03/03 06:46:28;;;;;;;44.50;27.30;;;;;;;;;;5034678;28;20515;-84
2024/03/03 06:48:54;;;;;;;43.17;25.97;;;;;;;;;;5034658;28;20843;-83
2024/03/03 06:51:20;;;;;;;47.20;29.37;;;;;;;;;;5034663;28;20420;-84
2024/03/03 06:53:46;;;;;;;50.63;30.87;;;;;;;;;;5034512;28;20424;-84
2024/03/03 06:56:16;;;;;;;42.83;25.70;;;;;;;;;;5034688;28;20403;-85
2024/03/03 06:58:42;;;;;;;48.33;30.17;;;;;;;;;;5032989;28;20828;-86
2024/03/03 07:01:08;;;;;;;44.53;27.20;;;;;;;;;;5034398;28;20897;-85
2024/03/03 07:03:58;;;;;;;44.60;28.37;;;;;;;;;;5034275;28;20465;-85
2024/03/03 07:06:21;;;;;;;43.97;28.70;;;;;;;;;;5034397;28;20477;-83
2024/03/03 07:08:47;;;;;;;46.53;27.90;;;;;;;;;;5034281;28;20412;-84
2024/03/03 07:11:13;;;;;;;49.70;28.13;;;;;;;;;;5032918;28;20421;-85
2024/03/03 07:13:39;;;;;;;42.80;29.20;;;;;;;;;;5033872;28;20413;-85
2024/03/03 07:16:05;;;;;;;49.23;30.13;;;;;;;;;;5034240;28;20417;-83
2024/03/03 07:18:31;;;;;;;42.93;28.43;;;;;;;;;;5033904;28;21055;-82
2024/03/03 07:20:57;;;;;;;42.83;29.30;;;;;;;;;;5033882;28;20505;-84
2024/03/03 07:23:23;;;;;;;41.03;27.70;;;;;;;;;;5032644;28;20481;-84
2024/03/03 07:25:49;;;;;;;42.67;27.40;;;;;;;;;;5033641;28;20421;-84
2024/03/03 07:28:15;;;;;;;43.87;28.37;;;;;;;;;;5033339;28;20412;-82
2024/03/03 07:30:41;;;;;;;42.23;27.73;;;;;;;;;;5033942;28;20963;-83
2024/03/03 07:33:08;;;;;;;42.50;28.20;;;;;;;;;;5033858;28;20174;-82
2024/03/03 07:35:34;;;;;;;39.23;27.43;;;;;;;;;;5033974;28;20420;-83
2024/03/03 07:38:03;;;;;;;42.57;27.60;;;;;;;;;;5034051;28;20413;-81
2024/03/03 07:40:33;;;;;;;39.70;27.87;;;;;;;;;;5033903;28;20432;-84
2024/03/03 07:42:59;;;;;;;39.03;25.47;;;;;;;;;;5033699;28;20412;-84
2024/03/03 07:45:25;;;;;;;33.37;23.00;;;;;;;;;;5034107;28;20771;-83
2024/03/03 07:47:51;;;;;;;33.73;25.13;;;;;;;;;;5033632;28;20418;-83
2024/03/03 07:50:17;;;;;;;37.10;24.27;;;;;;;;;;5033609;28;20893;-84
2024/03/03 07:52:43;;;;;;;37.23;26.33;;;;;;;;;;5032959;28;20506;-82
2024/03/03 07:55:09;;;;;;;36.73;25.70;;;;;;;;;;5033449;28;20830;-83
2024/03/03 07:57:35;;;;;;;30.93;24.10;;;;;;;;;;5032910;28;20818;-82
2024/03/03 08:00:06;;;;;;;37.60;25.77;;;;;;;;;;5033102;28;20494;-83
2024/03/03 08:02:32;;;;;;;34.93;25.27;;;;;;;;;;5030853;28;20475;-84
2024/03/03 08:04:58;;;;;;;37.47;25.53;;;;;;;;;;5032032;28;20417;-83
2024/03/03 08:07:24;;;;;;;36.60;24.47;;;;;;;;;;5032505;28;20412;-84
2024/03/03 08:09:53;;;;;;;31.60;24.03;;;;;;;;;;5033178;28;20808;-84
2024/03/03 08:12:19;;;;;;;30.90;23.97;;;;;;;;;;5032507;28;20413;-84
2024/03/03 08:14:45;;;;;;;31.97;24.30;;;;;;;;;;5032556;28;20414;-83
2024/03/03 08:17:11;;;;;;;32.30;23.90;;;;;;;;;;5032755;28;20414;-83
2024/03/03 08:19:37;;;;;;;36.70;26.27;;;;;;;;;;5031026;28;20469;-83
2024/03/03 08:22:03;;;;;;;33.23;23.43;;;;;;;;;;5032998;28;20499;-83
2024/03/03 08:24:29;;;;;;;33.33;25.03;;;;;;;;;;5033085;28;20423;-82
2024/03/03 08:26:55;;;;;;;29.10;23.77;;;;;;;;;;5033049;28;20416;-80
2024/03/03 08:29:21;;;;;;;30.40;23.80;;;;;;;;;;5032056;28;20917;-83
2024/03/03 08:31:47;;;;;;;28.07;21.97;;;;;;;;;;5032877;28;20178;-82
2024/03/03 08:34:13;;;;;;;30.63;25.03;;;;;;;;;;5033362;28;20419;-82
2024/03/03 08:36:40;;;;;;;28.43;22.87;;;;;;;;;;5033127;28;20437;-81
2024/03/03 08:39:06;;;;;;;28.47;22.60;;;;;;;;;;5030564;28;20474;-81
2024/03/03 08:41:37;;;;;;;28.43;23.50;;;;;;;;;;5033226;28;20423;-82
2024/03/03 08:44:03;;;;;;;29.77;23.50;;;;;;;;;;5032452;28;20411;-84
2024/03/03 08:46:29;;;;;;;31.53;23.67;;;;;;;;;;5032826;28;20420;-83
2024/03/03 08:48:55;;;;;;;24.20;21.10;;;;;;;;;;5033252;28;20406;-82
2024/03/03 08:51:21;;;;;;;37.60;24.70;;;;;;;;;;5032536;28;20431;-82
2024/03/03 08:53:47;;;;;;;26.90;24.03;;;;;;;;;;5035830;28;20421;-85
2024/03/03 08:56:13;;;;;;;27.23;23.63;;;;;;;;;;5032741;28;20635;-84
2024/03/03 08:58:40;;;;;;;30.67;23.27;;;;;;;;;;5034100;28;20475;-84
2024/03/03 09:01:14;;;;;;;27.97;23.00;;;;;;;;;;5035797;28;20411;-85
2024/03/03 09:03:40;;;;;;;26.70;21.90;;;;;;;;;;5033618;28;20462;-84
2024/03/03 09:06:06;;;;;;;25.50;21.60;;;;;;;;;;5034349;28;20517;-86
2024/03/03 09:08:32;;;;;;;26.70;21.60;;;;;;;;;;5035336;28;20408;-86
2024/03/03 09:11:01;;;;;;;25.03;22.47;;;;;;;;;;5035507;28;20420;-83
2024/03/03 09:13:31;;;;;;;25.27;22.67;;;;;;;;;;5033782;28;20947;-85
2024/03/03 09:15:57;;;;;;;24.90;21.40;;;;;;;;;;5033242;28;20837;-83
2024/03/03 09:18:22;;;;;;;25.43;22.30;;;;;;;;;;5035307;28;20452;-85
2024/03/03 09:21:00;;;;;;;23.70;21.10;;;;;;;;;;5035806;28;20174;-86
2024/03/03 09:23:26;;;;;;;27.43;21.80;;;;;;;;;;5035704;28;20412;-84
2024/03/03 09:25:53;;;;;;;24.90;22.30;;;;;;;;;;5035888;28;20822;-84
2024/03/03 09:28:19;;;;;;;24.67;20.70;;;;;;;;;;5035343;28;20448;-83
2024/03/03 09:30:45;;;;;;;26.23;21.07;;;;;;;;;;5035557;28;20448;-84
2024/03/03 09:33:11;;;;;;;25.30;21.40;;;;;;;;;;5031090;28;20405;-84
2024/03/03 09:35:37;;;;;;;25.37;22.40;;;;;;;;;;5035079;28;20412;-88
2024/03/03 09:38:05;;;;;;;24.23;21.73;;;;;;;;;;5035154;28;20413;-85
2024/03/03 09:40:31;;;;;;;24.00;20.47;;;;;;;;;;5034810;28;20560;-84
2024/03/03 09:42:58;;;;;;;26.03;21.93;;;;;;;;;;5034699;28;20468;-84
2024/03/03 09:45:25;;;;;;;25.13;22.53;;;;;;;;;;5032544;28;20413;-83
2024/03/03 09:47:51;;;;;;;23.83;21.33;;;;;;;;;;5034744;28;20413;-84
2024/03/03 09:50:17;;;;;;;25.20;20.87;;;;;;;;;;5034585;28;20508;-84
2024/03/03 09:52:44;;;;;;;24.17;21.33;;;;;;;;;;5034715;28;20971;-83
2024/03/03 09:55:11;;;;;;;25.37;21.90;;;;;;;;;;5034629;28;20959;-84
2024/03/03 09:57:40;;;;;;;23.23;20.80;;;;;;;;;;5033130;28;20421;-85
2024/03/03 10:00:07;;;;;;;23.90;21.50;;;;;;;;;;5034724;28;20473;-86
2024/03/03 10:02:34;;;;;;;23.47;21.13;;;;;;;;;;5033904;28;20964;-84
2024/03/03 10:05:01;;;;;;;23.50;19.80;;;;;;;;;;5035060;28;20765;-84
2024/03/03 10:07:31;;;;;;;21.97;19.47;;;;;;;;;;5033507;28;20937;-86
2024/03/03 10:10:13;;;;;;;21.00;18.90;;;;;;;;;;5034485;28;20925;-86
2024/03/03 10:12:45;;;;;;;23.53;20.97;;;;;;;;;;5033919;28;20417;-87
2024/03/03 10:15:12;;;;;;;22.13;20.00;;;;;;;;;;5034728;28;20525;-84
2024/03/03 10:17:42;;;;;;;22.07;18.33;;;;;;;;;;5033809;28;20441;-84
2024/03/03 10:20:11;;;;;;;22.17;19.87;;;;;;;;;;5033060;28;20511;-87
2024/03/03 10:22:47;;;;;;;21.77;19.57;;;;;;;;;;5033621;28;20432;-84
2024/03/03 10:25:15;;;;;;;21.43;19.13;;;;;;;;;;5032710;28;20412;-87
2024/03/03 10:27:50;;;;;;;22.90;20.50;;;;;;;;;;5033403;28;20512;-85
2024/03/03 10:30:18;;;;;;;21.90;19.33;;;;;;;;;;5034691;28;20889;-85
2024/03/03 10:32:44;;;;;;;21.13;18.83;;;;;;;;;;5034744;28;20455;-86
2024/03/03 10:35:18;;;;;;;22.27;19.70;;;;;;;;;;5034804;28;21016;-84
2024/03/03 10:37:53;;;;;;;21.40;19.37;;;;;;;;;;5034483;28;20979;-85
2024/03/03 10:40:22;;;;;;;23.33;20.90;;;;;;;;;;5034498;28;20555;-84
2024/03/03 10:42:48;;;;;;;22.60;20.27;;;;;;;;;;5033035;28;20925;-85
2024/03/03 10:45:21;;;;;;;22.17;19.97;;;;;;;;;;5034617;28;20429;-85
2024/03/03 10:47:49;;;;;;;22.17;19.00;;;;;;;;;;5032394;28;20519;-86
2024/03/03 10:50:22;;;;;;;21.23;19.03;;;;;;;;;;5032896;28;20405;-87
2024/03/03 10:52:49;;;;;;;21.33;19.20;;;;;;;;;;5032908;28;20945;-87
2024/03/03 10:55:15;;;;;;;23.10;20.90;;;;;;;;;;5033967;28;20504;-86
2024/03/03 10:57:45;;;;;;;22.03;19.90;;;;;;;;;;5029801;28;21000;-86
2024/03/03 11:00:14;;;;;;;22.43;20.30;;;;;;;;;;5021795;28;20998;-86
2024/03/03 11:02:42;;;;;;;20.87;17.60;;;;;;;;;;5021351;28;20437;-87
2024/03/03 11:05:10;;;;;;;20.30;18.23;;;;;;;;;;5022047;28;20855;-84
2024/03/03 11:07:37;;;;;;;21.83;19.63;;;;;;;;;;5021711;28;20430;-83
2024/03/03 11:10:03;;;;;;;21.73;19.17;;;;;;;;;;5020101;28;20484;-83
2024/03/03 11:12:31;;;;;;;22.90;19.70;;;;;;;;;;5036024;28;20444;-85
2024/03/03 11:14:58;;;;;;;21.00;19.00;;;;;;;;;;5020728;28;20433;-85
2024/03/03 11:17:26;;;;;;;20.53;18.53;;;;;;;;;;5021142;28;20786;-84
2024/03/03 11:19:53;;;;;;;22.17;19.97;;;;;;;;;;5021826;28;20527;-84
2024/03/03 11:22:23;;;;;;;22.83;20.27;;;;;;;;;;5021169;28;20460;-84
2024/03/03 11:24:54;;;;;;;21.27;18.50;;;;;;;;;;5021621;28;20821;-85
2024/03/03 11:27:26;;;;;;;19.87;17.97;;;;;;;;;;5020545;28;20867;-85
2024/03/03 11:29:52;;;;;;;19.27;17.47;;;;;;;;;;5025683;28;20796;-83
2024/03/03 11:32:20;;;;;;;19.90;18.07;;;;;;;;;;5014200;28;20493;-85
2024/03/03 11:34:46;;;;;;;18.70;16.80;;;;;;;;;;5014321;28;20498;-84
2024/03/03 11:37:14;;;;;;;18.53;16.63;;;;;;;;;;5014562;28;20775;-85
2024/03/03 11:39:56;;;;;;;19.17;17.33;;;;;;;;;;5015005;28;20805;-83
2024/03/03 11:42:27;;;;;;;20.53;18.10;;;;;;;;;;5014615;28;20767;-83
2024/03/03 11:44:53;;;;;;;18.90;17.00;;;;;;;;;;5014876;28;20757;-85
2024/03/03 11:47:23;;;;;;;19.70;17.30;;;;;;;;;;5015020;28;20762;-84
2024/03/03 11:49:49;;;;;;;16.73;14.87;;;;;;;;;;5014349;28;20410;-84
2024/03/03 11:52:34;;;;;;;18.17;16.47;;;;;;;;;;5014117;28;20476;-83
2024/03/03 11:55:00;;;;;;;17.90;16.10;;;;;;;;;;5013914;28;20445;-86
2024/03/03 11:57:33;;;;;;;17.50;15.03;;;;;;;;;;5012790;28;20766;-84
2024/03/03 12:00:12;;;;;;;16.27;14.67;;;;;;;;;;5014227;28;20493;-85
2024/03/03 12:02:40;;;;;;;16.67;14.87;;;;;;;;;;5013891;28;20429;-84
2024/03/03 12:05:08;;;;;;;17.97;15.53;;;;;;;;;;5014264;28;20402;-83
2024/03/03 12:07:34;;;;;;;17.17;15.60;;;;;;;;;;5014297;28;20472;-83
2024/03/03 12:10:00;;;;;;;17.13;15.33;;;;;;;;;;5014421;28;20412;-85
2024/03/03 12:12:26;;;;;;;18.13;15.57;;;;;;;;;;5013739;28;20414;-87
2024/03/03 12:14:52;;;;;;;16.60;14.83;;;;;;;;;;5013892;28;20409;-84
2024/03/03 12:17:18;;;;;;;19.63;15.70;;;;;;;;;;5014314;28;20229;-88
2024/03/03 12:19:46;;;;;;;17.43;15.73;;;;;;;;;;5014771;28;20665;-89
2024/03/03 12:22:12;;;;;;;18.50;16.60;;;;;;;;;;5013255;28;20433;-89
2024/03/03 12:24:42;;;;;;;17.53;15.83;;;;;;;;;;5013712;28;20418;-86
2024/03/03 12:27:08;;;;;;;17.87;16.07;;;;;;;;;;5014371;28;20493;-82
2024/03/03 12:29:38;;;;;;;17.27;15.50;;;;;;;;;;5013612;28;20505;-84
2024/03/03 12:32:05;;;;;;;19.30;16.37;;;;;;;;;;5014242;28;20414;-85
2024/03/03 12:34:37;;;;;;;18.40;16.50;;;;;;;;;;5015254;28;20429;-88
2024/03/03 12:37:04;;;;;;;17.27;15.47;;;;;;;;;;5013361;28;20497;-84
2024/03/03 12:39:30;;;;;;;16.53;14.60;;;;;;;;;;5013206;28;20470;-88
2024/03/03 12:41:56;;;;;;;18.97;14.90;;;;;;;;;;5011728;28;20949;-86
2024/03/03 12:44:22;;;;;;;16.83;14.87;;;;;;;;;;5012034;28;20458;-92
2024/03/03 12:46:51;;;;;;;17.00;15.23;;;;;;;;;;5013530;28;20428;-87
2024/03/03 12:49:17;;;;;;;18.33;16.43;;;;;;;;;;5013203;28;20418;-85
2024/03/03 12:51:44;;;;;;;18.70;16.83;;;;;;;;;;5013104;28;20414;-82
2024/03/03 12:54:10;;;;;;;20.93;16.90;;;;;;;;;;5013884;28;20453;-89
2024/03/03 12:56:36;;;;;;;18.60;15.20;;;;;;;;;;5013980;28;20414;-91
2024/03/03 12:59:05;;;;;;;19.03;17.00;;;;;;;;;;5018265;28;20484;-85
2024/03/03 13:01:31;;;;;;;20.60;17.00;;;;;;;;;;5032805;28;20417;-88
2024/03/03 13:03:57;;;;;;;17.70;15.80;;;;;;;;;;5032564;28;20564;-86
2024/03/03 13:06:23;;;;;;;16.53;14.80;;;;;;;;;;5033079;28;20417;-89
2024/03/03 13:08:53;;;;;;;17.73;15.40;;;;;;;;;;5034644;28;20412;-89
2024/03/03 13:11:19;;;;;;;19.73;15.93;;;;;;;;;;5034248;28;20520;-87
2024/03/03 13:13:46;;;;;;;18.80;16.03;;;;;;;;;;5033467;28;20440;-87
2024/03/03 13:16:12;;;;;;;17.57;15.77;;;;;;;;;;5033454;28;20417;-89
2024/03/03 13:18:38;;;;;;;19.83;17.73;;;;;;;;;;5033411;28;20449;-86
2024/03/03 13:21:14;;;;;;;19.07;15.97;;;;;;;;;;5032345;28;20745;-86
2024/03/03 13:23:40;;;;;;;17.90;16.00;;;;;;;;;;5030805;28;20211;-83
2024/03/03 13:26:06;;;;;;;17.63;15.17;;;;;;;;;;5032433;28;20421;-85
2024/03/03 13:28:32;;;;;;;18.17;16.27;;;;;;;;;;5032114;28;20501;-84
2024/03/03 13:30:58;;;;;;;19.77;16.80;;;;;;;;;;5032442;28;20427;-87
2024/03/03 13:33:25;;;;;;;18.30;14.80;;;;;;;;;;5032257;28;20411;-83
2024/03/03 13:35:51;;;;;;;21.40;17.20;;;;;;;;;;5033576;28;20424;-85
2024/03/03 13:38:17;;;;;;;21.70;17.00;;;;;;;;;;5035956;28;20919;-85
2024/03/03 13:40:43;;;;;;;22.77;14.93;;;;;;;;;;5035896;28;20424;-84
2024/03/03 13:43:09;;;;;;;20.03;17.90;;;;;;;;;;5034275;28;20924;-84
2024/03/03 13:45:35;;;;;;;20.93;17.20;;;;;;;;;;5035762;28;20179;-85
2024/03/03 13:48:04;;;;;;;20.63;15.60;;;;;;;;;;5035745;28;20174;-85
2024/03/03 13:50:30;;;;;;;21.50;16.40;;;;;;;;;;5035706;28;20175;-85
2024/03/03 13:52:56;;;;;;;20.90;17.53;;;;;;;;;;5035612;28;20918;-87
2024/03/03 13:55:22;;;;;;;21.93;17.17;;;;;;;;;;5035840;28;20173;-84
2024/03/03 13:57:48;;;;;;;20.97;17.00;;;;;;;;;;5035226;28;20958;-84
2024/03/03 14:00:14;;;;;;;24.97;18.80;;;;;;;;;;5035427;28;20243;-85
2024/03/03 14:02:40;;;;;;;19.77;16.30;;;;;;;;;;5035345;28;20176;-84
2024/03/03 14:05:06;;;;;;;21.37;18.27;;;;;;;;;;5035514;28;20496;-85
2024/03/03 14:07:32;;;;;;;20.67;17.60;;;;;;;;;;5035405;28;20463;-85
2024/03/03 14:09:59;;;;;;;21.13;17.40;;;;;;;;;;5035552;28;20504;-84
2024/03/03 14:12:25;;;;;;;25.00;18.93;;;;;;;;;;5034991;28;20423;-85
2024/03/03 14:14:51;;;;;;;26.90;19.37;;;;;;;;;;5035319;28;20413;-84